createdAt,value
2023-03-05T00:01:25.482Z,95210.66
2023-03-05T00:03:54.550Z,95206.31
2023-03-05T00:06:23.919Z,95204.97
2023-03-05T00:08:55.201Z,95207.91
2023-03-05T00:11:22.342Z,95208.69
2023-03-05T00:13:53.054Z,95197.03
2023-03-05T00:16:21.159Z,95194.50
2023-03-05T00:18:48.704Z,95192.03
2023-03-05T00:21:22.363Z,95198.41
2023-03-05T00:23:50.696Z,95189.16
2023-03-05T00:26:22.351Z,95186.13
2023-03-05T00:28:50.376Z,95182.94
2023-03-05T00:31:19.406Z,95178.97
2023-03-05T00:33:46.589Z,95182.59
2023-03-05T00:36:13.220Z,95174.34
2023-03-05T00:38:39.878Z,95177.97
2023-03-05T00:41:06.734Z,95181.56
2023-03-05T00:43:33.405Z,95176.06
2023-03-05T00:46:00.273Z,95175.91
2023-03-05T00:48:27.066Z,95170.84
2023-03-05T00:50:53.680Z,95168.31
2023-03-05T00:53:20.532Z,95166.56
2023-03-05T00:55:47.429Z,95155.09
2023-03-05T00:58:14.873Z,95155.75
2023-03-05T01:00:41.649Z,95157.00
2023-03-05T01:03:08.479Z,95151.59
2023-03-05T01:05:35.168Z,95144.16
2023-03-05T01:08:02.172Z,95136.72
2023-03-05T01:10:30.133Z,95140.59
2023-03-05T01:12:57.614Z,95134.63
2023-03-05T01:15:24.760Z,95137.06
2023-03-05T01:17:51.471Z,95135.53
2023-03-05T01:20:19.790Z,95131.19
2023-03-05T01:22:46.632Z,95127.84
2023-03-05T01:25:14.935Z,95127.59
2023-03-05T01:27:41.617Z,95120.59
2023-03-05T01:30:09.963Z,95111.34
2023-03-05T01:32:37.119Z,95121.56
2023-03-05T01:35:06.116Z,95112.59
2023-03-05T01:37:32.796Z,95117.75
2023-03-05T01:39:59.524Z,95116.50
2023-03-05T01:42:26.224Z,95110.53
2023-03-05T01:45:05.142Z,95111.59
2023-03-05T01:47:31.914Z,95118.56
2023-03-05T01:49:59.494Z,95111.94
2023-03-05T01:52:29.671Z,95105.47
2023-03-05T01:55:03.075Z,95105.31
2023-03-05T01:57:52.576Z,95111.28
2023-03-05T02:00:25.178Z,95104.66
2023-03-05T02:02:52.872Z,95099.09
2023-03-05T02:05:27.218Z,95095.97
2023-03-05T02:08:03.708Z,95092.72
2023-03-05T02:10:37.546Z,95097.53
2023-03-05T02:13:10.569Z,95093.84
2023-03-05T02:15:38.837Z,95092.97
2023-03-05T02:18:07.472Z,95088.06
2023-03-05T02:20:54.206Z,95088.13
2023-03-05T02:23:22.261Z,95087.59
2023-03-05T02:25:49.194Z,95074.91
2023-03-05T02:28:26.222Z,95075.56
2023-03-05T02:30:52.778Z,95081.13
2023-03-05T02:33:20.433Z,95076.94
2023-03-05T02:35:48.546Z,95077.84
2023-03-05T02:38:18.043Z,95067.00
2023-03-05T02:40:44.988Z,95065.19
2023-03-05T02:43:13.117Z,95072.78
2023-03-05T02:45:40.254Z,95067.00
2023-03-05T02:48:07.491Z,95060.34
2023-03-05T02:50:34.813Z,95065.44
2023-03-05T02:53:02.297Z,95056.91
2023-03-05T02:55:29.685Z,95063.31
2023-03-05T02:57:56.614Z,95056.75
2023-03-05T03:00:23.519Z,95054.22
2023-03-05T03:02:50.357Z,95051.44
2023-03-05T03:05:17.227Z,95044.19
2023-03-05T03:07:43.824Z,95040.19
2023-03-05T03:10:11.503Z,95033.53
2023-03-05T03:12:39.958Z,95041.00
2023-03-05T03:15:09.469Z,95034.28
2023-03-05T03:17:37.232Z,95029.22
2023-03-05T03:20:09.424Z,95026.50
2023-03-05T03:22:37.128Z,95020.78
2023-03-05T03:25:05.280Z,95016.38
2023-03-05T03:27:32.109Z,95012.94
2023-03-05T03:30:02.618Z,95018.41
2023-03-05T03:32:29.520Z,95025.09
2023-03-05T03:34:56.422Z,95018.41
2023-03-05T03:37:23.148Z,95015.19
2023-03-05T03:39:49.831Z,95015.72
2023-03-05T03:42:21.052Z,95014.66
2023-03-05T03:44:47.926Z,95011.63
2023-03-05T03:47:14.834Z,95010.19
2023-03-05T03:49:41.458Z,95010.41
2023-03-05T03:52:08.744Z,95007.56
2023-03-05T03:54:35.337Z,95005.75
2023-03-05T03:57:01.903Z,95003.38
2023-03-05T03:59:28.589Z,95002.94
2023-03-05T04:01:55.363Z,95000.34
2023-03-05T04:04:21.983Z,95002.78
2023-03-05T04:06:48.811Z,94990.38
2023-03-05T04:09:15.493Z,94986.44
2023-03-05T04:11:42.023Z,94982.38
2023-03-05T04:14:08.725Z,94987.69
2023-03-05T04:16:35.417Z,94991.75
2023-03-05T04:19:01.988Z,94983.31
2023-03-05T04:21:29.751Z,94979.72
2023-03-05T04:23:56.284Z,94980.72
2023-03-05T04:26:23.010Z,94976.38
2023-03-05T04:28:49.936Z,94972.94
2023-03-05T04:31:17.267Z,94968.19
2023-03-05T04:33:44.080Z,94964.94
2023-03-05T04:36:10.704Z,94968.78
2023-03-05T04:38:37.237Z,94963.78
2023-03-05T04:41:04.226Z,94965.50
2023-03-05T04:43:30.953Z,94959.28
2023-03-05T04:45:57.790Z,94960.44
2023-03-05T04:48:24.363Z,94961.22
2023-03-05T04:50:51.361Z,94954.78
2023-03-05T04:53:18.067Z,94954.25
2023-03-05T04:55:44.685Z,94952.34
2023-03-05T04:58:11.330Z,94950.53
2023-03-05T05:00:39.069Z,94943.28
2023-03-05T05:03:05.622Z,94942.41
2023-03-05T05:05:32.589Z,94945.38
2023-03-05T05:07:59.135Z,94949.28
2023-03-05T05:10:26.624Z,94941.78
2023-03-05T05:12:53.527Z,94933.53
2023-03-05T05:15:20.842Z,94943.34
2023-03-05T05:17:47.998Z,94936.13
2023-03-05T05:20:16.489Z,94938.25
2023-03-05T05:22:43.428Z,94931.09
2023-03-05T05:25:10.500Z,94941.53
2023-03-05T05:27:39.904Z,94934.66
2023-03-05T05:30:07.794Z,94936.28
2023-03-05T05:32:34.580Z,94940.47
2023-03-05T05:35:01.130Z,94939.72
2023-03-05T05:37:27.893Z,94940.47
2023-03-05T05:39:54.938Z,94941.34
2023-03-05T05:42:25.572Z,94946.06
2023-03-05T05:44:52.276Z,94946.06
2023-03-05T05:47:19.175Z,94948.06
2023-03-05T05:49:45.902Z,94943.94
2023-03-05T05:52:13.356Z,94944.56
2023-03-05T05:54:40.192Z,94939.25
2023-03-05T05:57:07.515Z,94941.78
2023-03-05T05:59:34.259Z,94945.38
2023-03-05T06:02:01.037Z,94944.31
2023-03-05T06:04:27.972Z,94941.69
2023-03-05T06:06:54.611Z,94946.56
2023-03-05T06:09:21.198Z,94946.22
2023-03-05T06:11:48.066Z,94946.31
2023-03-05T06:14:14.719Z,94943.59
2023-03-05T06:16:41.702Z,94949.28
2023-03-05T06:19:11.986Z,94940.16
2023-03-05T06:21:39.170Z,94947.09
2023-03-05T06:24:06.659Z,94942.75
2023-03-05T06:26:33.577Z,94938.34
2023-03-05T06:29:00.425Z,94939.78
2023-03-05T06:31:29.680Z,94935.63
2023-03-05T06:34:01.129Z,94937.97
2023-03-05T06:36:29.025Z,94929.13
2023-03-05T06:38:56.674Z,94931.09
2023-03-05T06:41:26.793Z,94932.47
2023-03-05T06:43:54.613Z,94927.38
2023-03-05T06:46:30.140Z,94932.34
2023-03-05T06:48:59.432Z,94937.19
2023-03-05T06:51:32.060Z,94931.47
2023-03-05T06:54:04.534Z,94927.28
2023-03-05T06:56:31.604Z,94933.00
2023-03-05T06:58:59.490Z,94931.75
2023-03-05T07:01:26.408Z,94934.53
2023-03-05T07:03:55.269Z,94929.56
2023-03-05T07:06:22.650Z,94927.03
2023-03-05T07:08:50.022Z,94930.38
2023-03-05T07:11:20.683Z,94932.28
2023-03-05T07:13:48.445Z,94932.16
2023-03-05T07:16:21.494Z,94927.72
2023-03-05T07:18:48.926Z,94934.59
2023-03-05T07:21:19.448Z,94933.97
2023-03-05T07:23:46.203Z,94924.63
2023-03-05T07:26:13.631Z,94921.69
2023-03-05T07:28:40.501Z,94929.13
2023-03-05T07:31:10.952Z,94929.84
2023-03-05T07:33:37.535Z,94916.56
2023-03-05T07:36:07.651Z,94921.91
2023-03-05T07:38:34.735Z,94926.03
2023-03-05T07:41:06.559Z,94921.13
2023-03-05T07:43:33.379Z,94924.84
2023-03-05T07:46:00.239Z,94920.75
2023-03-05T07:48:26.946Z,94917.75
2023-03-05T07:51:04.003Z,94918.72
2023-03-05T07:53:31.100Z,94917.97
2023-03-05T07:55:57.839Z,94920.03
2023-03-05T07:58:25.014Z,94908.22
2023-03-05T08:00:51.874Z,94909.22
2023-03-05T08:03:18.887Z,94907.69
2023-03-05T08:05:45.713Z,94904.88
2023-03-05T08:08:12.867Z,94901.31
2023-03-05T08:10:39.532Z,94902.81
2023-03-05T08:13:06.182Z,94905.09
2023-03-05T08:15:32.760Z,94899.19
2023-03-05T08:18:00.011Z,94897.25
2023-03-05T08:20:26.962Z,94896.69
2023-03-05T08:22:53.750Z,94904.13
2023-03-05T08:25:20.457Z,94897.47
2023-03-05T08:27:48.634Z,94900.34
2023-03-05T08:30:20.326Z,94899.44
2023-03-05T08:32:48.260Z,94899.22
2023-03-05T08:35:15.126Z,94898.41
2023-03-05T08:37:41.664Z,94888.16
2023-03-05T08:40:09.265Z,94896.06
2023-03-05T08:42:35.959Z,94896.16
2023-03-05T08:45:02.704Z,94896.47
2023-03-05T08:47:29.397Z,94884.88
2023-03-05T08:49:57.211Z,94884.75
2023-03-05T08:52:24.620Z,94892.31
2023-03-05T08:54:51.184Z,94887.00
2023-03-05T08:57:17.979Z,94884.25
2023-03-05T08:59:44.663Z,94878.44
2023-03-05T09:02:13.400Z,94880.63
2023-03-05T09:04:40.174Z,94879.56
2023-03-05T09:07:06.981Z,94885.31
2023-03-05T09:09:34.142Z,94873.09
2023-03-05T09:12:01.631Z,94867.91
2023-03-05T09:14:29.356Z,94867.00
2023-03-05T09:16:57.969Z,94869.97
2023-03-05T09:19:25.727Z,94872.09
2023-03-05T09:21:53.237Z,94855.63
2023-03-05T09:24:21.384Z,94853.13
2023-03-05T09:26:48.064Z,94850.06
2023-03-05T09:29:15.013Z,94852.66
2023-03-05T09:31:43.351Z,94861.22
2023-03-05T09:34:11.274Z,94854.84
2023-03-05T09:36:37.849Z,94851.19
2023-03-05T09:39:07.055Z,94854.13
2023-03-05T09:41:58.680Z,94859.16
2023-03-05T09:44:34.830Z,94848.16
2023-03-05T09:47:01.568Z,94862.69
2023-03-05T09:49:57.969Z,94852.22
2023-03-05T09:52:39.158Z,94858.94
2023-03-05T09:55:13.721Z,94859.88
2023-03-05T09:57:45.685Z,94860.03
2023-03-05T10:00:33.406Z,94849.59
2023-03-05T10:03:06.573Z,94852.25
2023-03-05T10:05:49.247Z,94854.25
2023-03-05T10:08:21.094Z,94847.13
2023-03-05T10:10:51.765Z,94834.78
2023-03-05T10:13:25.172Z,94838.84
2023-03-05T10:16:06.151Z,94843.59
2023-03-05T10:18:46.938Z,94839.41
2023-03-05T10:21:16.791Z,94840.09
2023-03-05T10:24:14.422Z,94832.00
2023-03-05T10:27:20.664Z,94835.72
2023-03-05T10:30:21.993Z,94830.41
2023-03-05T10:33:18.379Z,94825.19
2023-03-05T10:36:25.297Z,94825.19
2023-03-05T10:38:55.058Z,94830.53
2023-03-05T10:41:40.488Z,94828.06
2023-03-05T10:44:18.427Z,94826.97
2023-03-05T10:46:47.629Z,94817.06
2023-03-05T10:49:25.295Z,94816.41
2023-03-05T10:51:59.489Z,94808.06
2023-03-05T10:54:33.008Z,94806.38
2023-03-05T10:57:24.546Z,94805.69
2023-03-05T11:00:05.705Z,94797.94
2023-03-05T11:02:33.011Z,94787.97
2023-03-05T11:04:59.981Z,94784.72
2023-03-05T11:07:26.551Z,94779.97
2023-03-05T11:10:04.327Z,94778.44
2023-03-05T11:12:38.405Z,94775.56
2023-03-05T11:15:14.286Z,94775.09
2023-03-05T11:17:47.832Z,94771.16
2023-03-05T11:20:26.368Z,94771.38
2023-03-05T11:23:03.907Z,94763.09
2023-03-05T11:25:32.666Z,94766.50
2023-03-05T11:28:02.170Z,94758.44
2023-03-05T11:30:36.718Z,94763.03
2023-03-05T11:33:10.488Z,94764.72
2023-03-05T11:35:43.384Z,94751.72
2023-03-05T11:38:23.706Z,94760.84
2023-03-05T11:40:52.231Z,94748.06
2023-03-05T11:43:21.177Z,94753.88
2023-03-05T11:45:51.746Z,94741.94
2023-03-05T11:48:25.378Z,94734.09
2023-03-05T11:50:57.637Z,94733.50
2023-03-05T11:53:29.170Z,94734.75
2023-03-05T11:56:19.222Z,94729.09
2023-03-05T11:59:14.517Z,94731.53
2023-03-05T12:01:46.262Z,94728.47
2023-03-05T12:04:13.584Z,94725.50
2023-03-05T12:07:02.406Z,94713.22
2023-03-05T12:09:44.383Z,94712.38
2023-03-05T12:12:36.058Z,94719.53
2023-03-05T12:15:09.079Z,94709.50
2023-03-05T12:17:44.888Z,94708.97
2023-03-05T12:20:28.177Z,94700.75
2023-03-05T12:22:57.068Z,94692.66
2023-03-05T12:25:47.244Z,94691.91
2023-03-05T12:28:34.086Z,94680.72
2023-03-05T12:31:04.770Z,94689.59
2023-03-05T12:33:43.458Z,94683.38
2023-03-05T12:36:22.328Z,94678.63
2023-03-05T12:38:56.799Z,94681.03
2023-03-05T12:41:23.481Z,94673.25
2023-03-05T12:44:05.058Z,94674.19
2023-03-05T12:46:36.123Z,94669.56
2023-03-05T12:49:18.027Z,94669.19
2023-03-05T12:51:46.077Z,94670.63
2023-03-05T12:54:36.031Z,94653.06
2023-03-05T12:57:24.824Z,94646.25
2023-03-05T12:59:59.556Z,94655.19
2023-03-05T13:02:34.779Z,94646.78
2023-03-05T13:05:07.635Z,94646.94
2023-03-05T13:07:34.336Z,94639.53
2023-03-05T13:10:00.978Z,94640.59
2023-03-05T13:12:29.842Z,94641.28
2023-03-05T13:15:03.713Z,94631.84
2023-03-05T13:17:33.849Z,94628.47
2023-03-05T13:20:02.737Z,94626.25
2023-03-05T13:22:29.397Z,94631.09
2023-03-05T13:25:20.677Z,94625.09
2023-03-05T13:27:47.423Z,94629.81
2023-03-05T13:30:27.094Z,94624.69
2023-03-05T13:33:02.799Z,94628.78
2023-03-05T13:35:33.988Z,94626.78
2023-03-05T13:38:02.217Z,94626.19
2023-03-05T13:40:32.215Z,94634.66
2023-03-05T13:43:13.598Z,94622.94
2023-03-05T13:45:40.431Z,94622.75
2023-03-05T13:48:07.508Z,94612.63
2023-03-05T13:50:37.359Z,94618.75
2023-03-05T13:53:16.194Z,94613.13
2023-03-05T13:55:43.952Z,94613.75
2023-03-05T13:58:48.186Z,94606.19
2023-03-05T14:01:30.051Z,94597.88
2023-03-05T14:04:03.445Z,94607.91
2023-03-05T14:06:31.011Z,94601.94
2023-03-05T14:09:19.407Z,94604.09
2023-03-05T14:11:54.941Z,94596.28
2023-03-05T14:14:23.528Z,94593.56
2023-03-05T14:16:50.349Z,94598.06
2023-03-05T14:19:36.139Z,94593.22
2023-03-05T14:22:04.639Z,94587.56
2023-03-05T14:24:32.367Z,94586.25
2023-03-05T14:27:08.711Z,94581.84
2023-03-05T14:29:36.264Z,94579.16
2023-03-05T14:32:08.096Z,94577.50
2023-03-05T14:34:42.037Z,94570.63
2023-03-05T14:37:21.581Z,94571.78
2023-03-05T14:39:54.810Z,94574.44
2023-03-05T14:42:38.368Z,94560.06
2023-03-05T14:45:26.637Z,94562.88
2023-03-05T14:47:55.637Z,94559.03
2023-03-05T14:50:26.537Z,94558.78
2023-03-05T14:53:00.372Z,94555.41
2023-03-05T14:55:31.605Z,94553.28
2023-03-05T14:58:04.442Z,94557.97
2023-03-05T15:00:31.780Z,94547.44
2023-03-05T15:02:58.551Z,94552.06
2023-03-05T15:05:25.325Z,94558.75
2023-03-05T15:07:52.535Z,94555.88
2023-03-05T15:10:23.206Z,94554.56
2023-03-05T15:12:51.177Z,94543.47
2023-03-05T15:15:19.854Z,94546.78
2023-03-05T15:17:47.941Z,94541.53
2023-03-05T15:20:22.914Z,94540.13
2023-03-05T15:22:49.568Z,94535.81
2023-03-05T15:25:16.897Z,94531.03
2023-03-05T15:27:43.681Z,94530.09
2023-03-05T15:30:21.268Z,94531.09
2023-03-05T15:32:48.150Z,94529.59
2023-03-05T15:35:14.790Z,94529.03
2023-03-05T15:37:41.577Z,94530.19
2023-03-05T15:40:09.111Z,94521.78
2023-03-05T15:42:35.693Z,94522.28
2023-03-05T15:45:02.753Z,94520.75
2023-03-05T15:47:31.192Z,94516.84
2023-03-05T15:49:59.693Z,94510.72
2023-03-05T15:52:26.481Z,94508.19
2023-03-05T15:54:53.101Z,94506.22
2023-03-05T15:57:23.690Z,94505.28
2023-03-05T15:59:50.502Z,94499.19
2023-03-05T16:02:17.391Z,94500.00
2023-03-05T16:04:44.450Z,94499.75
2023-03-05T16:07:13.590Z,94501.41
2023-03-05T16:09:48.287Z,94500.66
2023-03-05T16:12:20.063Z,94502.50
2023-03-05T16:14:49.749Z,94503.75
2023-03-05T16:17:19.883Z,94493.94
2023-03-05T16:19:49.709Z,94502.50
2023-03-05T16:22:16.294Z,94492.31
2023-03-05T16:24:43.093Z,94492.22
2023-03-05T16:27:10.572Z,94494.56
2023-03-05T16:29:37.262Z,94490.06
2023-03-05T16:32:07.659Z,94490.88
2023-03-05T16:34:34.849Z,94484.97
2023-03-05T16:37:04.378Z,94481.16
2023-03-05T16:39:31.142Z,94483.81
2023-03-05T16:41:57.948Z,94487.97
2023-03-05T16:44:24.916Z,94483.81
2023-03-05T16:46:53.977Z,94482.19
2023-03-05T16:49:21.310Z,94474.91
2023-03-05T16:51:48.653Z,94479.06
2023-03-05T16:54:15.394Z,94481.97
2023-03-05T16:56:42.180Z,94484.28
2023-03-05T16:59:08.810Z,94484.03
2023-03-05T17:01:35.851Z,94478.13
2023-03-05T17:04:03.015Z,94483.34
2023-03-05T17:06:31.883Z,94479.19
2023-03-05T17:08:59.230Z,94477.78
2023-03-05T17:11:26.294Z,94481.13
2023-03-05T17:13:53.228Z,94483.91
2023-03-05T17:16:20.998Z,94484.34
2023-03-05T17:18:48.374Z,94477.28
2023-03-05T17:21:16.079Z,94479.38
2023-03-05T17:23:42.922Z,94469.41
2023-03-05T17:26:12.453Z,94463.72
2023-03-05T17:28:39.548Z,94466.16
2023-03-05T17:31:06.220Z,94466.41
2023-03-05T17:33:34.069Z,94467.66
2023-03-05T17:36:01.164Z,94471.16
2023-03-05T17:38:28.132Z,94465.13
2023-03-05T17:40:54.634Z,94461.84
2023-03-05T17:43:21.980Z,94468.91
2023-03-05T17:45:49.000Z,94467.47
2023-03-05T17:48:16.156Z,94464.84
2023-03-05T17:50:44.940Z,94464.84
2023-03-05T17:53:12.226Z,94467.41
2023-03-05T17:55:39.385Z,94471.56
2023-03-05T17:58:06.071Z,94468.22
2023-03-05T18:00:32.964Z,94469.50
2023-03-05T18:03:26.426Z,94466.97
2023-03-05T18:05:59.491Z,94471.47
2023-03-05T18:08:26.060Z,94463.72
2023-03-05T18:10:54.208Z,94461.78
2023-03-05T18:13:20.741Z,94456.72
2023-03-05T18:15:48.457Z,94447.19
2023-03-05T18:18:17.110Z,94458.19
2023-03-05T18:20:44.271Z,94449.88
2023-03-05T18:23:11.601Z,94456.31
2023-03-05T18:25:38.247Z,94452.06
2023-03-05T18:28:07.624Z,94457.47
2023-03-05T18:30:35.089Z,94456.75
2023-03-05T18:33:02.092Z,94445.69
2023-03-05T18:35:29.765Z,94445.91
2023-03-05T18:37:57.086Z,94435.28
2023-03-05T18:40:25.884Z,94434.69
2023-03-05T18:42:52.738Z,94445.06
2023-03-05T18:45:21.748Z,94433.06
2023-03-05T18:47:49.125Z,94436.31
2023-03-05T18:50:18.553Z,94432.59
2023-03-05T18:52:45.931Z,94429.03
2023-03-05T18:55:22.149Z,94428.47
2023-03-05T18:57:49.369Z,94423.38
2023-03-05T19:00:20.259Z,94431.41
2023-03-05T19:02:47.363Z,94430.38
2023-03-05T19:05:15.165Z,94420.19
2023-03-05T19:07:42.279Z,94419.28
2023-03-05T19:10:10.765Z,94415.94
2023-03-05T19:12:49.169Z,94418.47
2023-03-05T19:15:16.980Z,94413.38
2023-03-05T19:17:43.731Z,94411.53
2023-03-05T19:20:12.634Z,94405.75
2023-03-05T19:22:40.164Z,94410.66
2023-03-05T19:25:07.545Z,94415.38
2023-03-05T19:27:34.478Z,94410.66
2023-03-05T19:30:01.499Z,94408.88
2023-03-05T19:32:28.378Z,94414.47
2023-03-05T19:34:57.077Z,94411.34
2023-03-05T19:37:24.850Z,94408.81
2023-03-05T19:39:51.998Z,94412.47
2023-03-05T19:42:19.151Z,94403.56
2023-03-05T19:44:46.250Z,94406.91
2023-03-05T19:47:12.988Z,94401.13
2023-03-05T19:49:39.984Z,94400.09
2023-03-05T19:52:07.033Z,94402.78
2023-03-05T19:54:34.150Z,94403.88
2023-03-05T19:57:01.009Z,94407.09
2023-03-05T19:59:27.720Z,94397.72
2023-03-05T20:01:54.409Z,94402.09
2023-03-05T20:04:23.228Z,94400.38
2023-03-05T20:06:49.818Z,94391.88
2023-03-05T20:09:17.603Z,94397.31
2023-03-05T20:11:46.433Z,94394.44
2023-03-05T20:14:14.505Z,94396.06
2023-03-05T20:16:41.880Z,94391.09
2023-03-05T20:19:10.992Z,94396.19
2023-03-05T20:21:41.106Z,94394.22
2023-03-05T20:24:12.261Z,94395.84
2023-03-05T20:26:41.321Z,94385.91
2023-03-05T20:29:08.775Z,94388.88
2023-03-05T20:31:37.161Z,94388.19
2023-03-05T20:34:10.802Z,94385.19
2023-03-05T20:36:37.779Z,94381.84
2023-03-05T20:39:05.587Z,94382.16
2023-03-05T20:41:34.564Z,94380.06
2023-03-05T20:44:01.120Z,94378.44
2023-03-05T20:46:31.442Z,94368.66
2023-03-05T20:49:00.562Z,94367.03
2023-03-05T20:51:32.174Z,94373.59
2023-03-05T20:54:03.233Z,94364.25
2023-03-05T20:56:32.464Z,94360.22
2023-03-05T20:59:01.226Z,94357.69
2023-03-05T21:01:28.307Z,94363.09
2023-03-05T21:03:57.126Z,94359.16
2023-03-05T21:06:25.172Z,94356.13
2023-03-05T21:08:51.748Z,94362.44
2023-03-05T21:11:18.910Z,94365.06
2023-03-05T21:13:45.874Z,94360.69
2023-03-05T21:16:22.654Z,94352.78
2023-03-05T21:18:51.044Z,94352.78
2023-03-05T21:21:18.912Z,94344.50
2023-03-05T21:23:45.937Z,94343.59
2023-03-05T21:26:13.512Z,94337.91
2023-03-05T21:28:41.094Z,94338.25
2023-03-05T21:31:17.954Z,94333.28
2023-03-05T21:33:45.095Z,94336.97
2023-03-05T21:36:11.889Z,94330.94
2023-03-05T21:38:38.620Z,94325.22
2023-03-05T21:41:06.054Z,94327.06
2023-03-05T21:43:33.370Z,94322.59
2023-03-05T21:46:01.216Z,94320.59
2023-03-05T21:48:28.012Z,94315.50
2023-03-05T21:50:55.430Z,94320.09
2023-03-05T21:53:22.302Z,94312.69
2023-03-05T21:56:04.232Z,94311.25
2023-03-05T21:58:33.681Z,94310.84
2023-03-05T22:01:00.446Z,94304.03
2023-03-05T22:03:27.999Z,94305.34
2023-03-05T22:05:55.009Z,94300.16
2023-03-05T22:08:22.929Z,94304.22
2023-03-05T22:10:49.831Z,94296.59
2023-03-05T22:13:18.024Z,94293.25
2023-03-05T22:15:45.728Z,94290.94
2023-03-05T22:18:13.487Z,94302.50
2023-03-05T22:20:40.798Z,94300.66
2023-03-05T22:23:08.095Z,94304.47
2023-03-05T22:25:35.110Z,94298.41
2023-03-05T22:28:02.273Z,94289.44
2023-03-05T22:30:28.867Z,94297.56
2023-03-05T22:32:55.641Z,94291.06
2023-03-05T22:35:22.721Z,94286.78
2023-03-05T22:37:49.305Z,94283.72
2023-03-05T22:40:19.412Z,94277.75
2023-03-05T22:42:46.934Z,94279.34
2023-03-05T22:45:16.901Z,94278.63
2023-03-05T22:47:47.433Z,94277.44
2023-03-05T22:50:14.314Z,94276.03
2023-03-05T22:52:41.135Z,94269.47
2023-03-05T22:55:08.173Z,94272.50
2023-03-05T22:57:34.980Z,94268.47
2023-03-05T23:00:01.615Z,94268.06
2023-03-05T23:02:28.227Z,94256.31
2023-03-05T23:04:57.754Z,94269.72
2023-03-05T23:07:33.632Z,94269.28
2023-03-05T23:10:14.360Z,94267.09
2023-03-05T23:12:48.428Z,94258.78
2023-03-05T23:15:18.287Z,94256.25
2023-03-05T23:17:44.984Z,94259.34
2023-03-05T23:20:16.688Z,94252.91
2023-03-05T23:22:45.140Z,94261.03
2023-03-05T23:25:13.599Z,94251.53
2023-03-05T23:27:41.007Z,94244.34
2023-03-05T23:30:19.625Z,94248.59
2023-03-05T23:32:50.740Z,94244.53
2023-03-05T23:35:28.581Z,94244.09
2023-03-05T23:37:56.847Z,94235.34
2023-03-05T23:40:26.461Z,94242.22
2023-03-05T23:42:53.798Z,94235.50
2023-03-05T23:45:22.041Z,94231.72
2023-03-05T23:47:49.248Z,94231.06
2023-03-05T23:50:18.804Z,94224.66
2023-03-05T23:52:45.926Z,94229.97
2023-03-05T23:55:27.584Z,94223.47
2023-03-05T23:57:55.314Z,94233.84
